createdAt,value
2023-01-01T00:00:06.733Z,94.54
2023-01-01T00:02:37.668Z,94.61
2023-01-01T00:05:06.698Z,94.77
2023-01-01T00:07:34.839Z,95.02
2023-01-01T00:10:20.720Z,95.10
2023-01-01T00:12:48.559Z,95.12
2023-01-01T00:15:16.286Z,95.15
2023-01-01T00:17:43.830Z,95.22
2023-01-01T00:20:12.468Z,94.92
2023-01-01T00:22:54.908Z,94.85
2023-01-01T00:25:27.781Z,94.77
2023-01-01T00:27:55.994Z,94.80
2023-01-01T00:30:25.045Z,95.16
2023-01-01T00:32:56.087Z,95.13
2023-01-01T00:35:26.212Z,95.39
2023-01-01T00:37:55.328Z,95.29
2023-01-01T00:40:25.587Z,95.15
2023-01-01T00:42:53.334Z,95.07
2023-01-01T00:45:22.763Z,94.98
2023-01-01T00:47:52.518Z,94.91
2023-01-01T00:50:22.912Z,94.84
2023-01-01T00:52:51.927Z,94.77
2023-01-01T00:55:19.937Z,94.89
2023-01-01T00:57:47.905Z,94.81
2023-01-01T01:00:24.675Z,95.03
2023-01-01T01:02:52.595Z,94.93
2023-01-01T01:05:23.384Z,94.90
2023-01-01T01:07:51.112Z,94.88
2023-01-01T01:10:21.195Z,94.83
2023-01-01T01:12:49.039Z,94.78
2023-01-01T01:15:16.635Z,94.77
2023-01-01T01:17:44.367Z,94.77
2023-01-01T01:20:12.775Z,94.73
2023-01-01T01:22:40.844Z,94.75
2023-01-01T01:25:08.931Z,95.03
2023-01-01T01:27:36.785Z,94.85
2023-01-01T01:30:04.791Z,95.06
2023-01-01T01:32:32.484Z,95.12
2023-01-01T01:35:00.340Z,95.18
2023-01-01T01:37:28.725Z,95.17
2023-01-01T01:39:57.008Z,95.16
2023-01-01T01:42:24.789Z,95.16
2023-01-01T01:44:56.592Z,95.14
2023-01-01T01:47:32.922Z,95.29
2023-01-01T01:50:09.743Z,95.22
2023-01-01T01:52:40.911Z,95.18
2023-01-01T01:55:09.687Z,95.15
2023-01-01T01:57:38.740Z,95.11
2023-01-01T02:00:11.478Z,95.50
2023-01-01T02:02:48.308Z,95.38
2023-01-01T02:05:16.338Z,95.71
2023-01-01T02:07:44.248Z,95.58
2023-01-01T02:10:11.861Z,95.87
2023-01-01T02:12:39.515Z,95.79
2023-01-01T02:15:08.274Z,95.72
2023-01-01T02:17:42.835Z,95.85
2023-01-01T02:20:16.702Z,95.75
2023-01-01T02:22:50.088Z,96.54
2023-01-01T02:25:27.547Z,97.40
2023-01-01T02:28:12.388Z,97.41
2023-01-01T02:30:42.055Z,96.80
2023-01-01T02:33:15.147Z,97.75
2023-01-01T02:35:50.550Z,97.75
2023-01-01T02:38:29.404Z,97.73
2023-01-01T02:41:01.172Z,97.63
2023-01-01T02:43:28.820Z,97.76
2023-01-01T02:45:56.744Z,97.90
2023-01-01T02:48:43.956Z,97.93
2023-01-01T02:51:14.580Z,97.76
2023-01-01T02:53:48.993Z,97.66
2023-01-01T02:56:28.035Z,97.68
2023-01-01T02:59:36.713Z,97.58
2023-01-01T03:02:19.605Z,97.48
2023-01-01T03:05:10.914Z,97.40
2023-01-01T03:07:44.397Z,97.33
2023-01-01T03:10:20.005Z,97.28
2023-01-01T03:13:18.615Z,97.25
2023-01-01T03:16:01.115Z,97.54
2023-01-01T03:18:47.327Z,97.75
2023-01-01T03:23:49.974Z,97.81
2023-01-01T03:26:19.533Z,97.95
2023-01-01T03:28:51.380Z,97.98
2023-01-01T03:31:21.780Z,97.85
2023-01-01T03:34:02.186Z,97.79
2023-01-01T03:36:35.801Z,97.75
2023-01-01T03:39:17.904Z,97.75
2023-01-01T03:42:02.625Z,97.84
2023-01-01T03:44:32.991Z,97.78
2023-01-01T03:47:01.481Z,97.61
2023-01-01T03:49:30.499Z,97.55
2023-01-01T03:52:19.498Z,97.63
2023-01-01T03:55:00.223Z,97.56
2023-01-01T03:57:44.659Z,97.66
2023-01-01T04:00:20.897Z,97.81
2023-01-01T04:02:56.558Z,98.43
2023-01-01T04:05:25.323Z,98.29
2023-01-01T04:07:53.825Z,98.04
2023-01-01T04:10:23.134Z,97.90
2023-01-01T04:12:57.066Z,97.83
2023-01-01T04:15:27.249Z,97.71
2023-01-01T04:17:55.350Z,97.59
2023-01-01T04:20:23.197Z,97.56
2023-01-01T04:22:51.420Z,97.53
2023-01-01T04:25:18.970Z,97.53
2023-01-01T04:27:46.522Z,97.70
2023-01-01T04:30:15.250Z,97.70
2023-01-01T04:32:43.523Z,97.86
2023-01-01T04:35:14.947Z,97.93
2023-01-01T04:37:44.338Z,97.91
2023-01-01T04:40:13.012Z,99.42
2023-01-01T04:42:42.060Z,99.95
2023-01-01T04:45:12.420Z,99.60
2023-01-01T04:47:41.528Z,99.04
2023-01-01T04:50:09.527Z,99.09
2023-01-01T04:52:37.517Z,99.18
2023-01-01T04:55:05.572Z,99.63
2023-01-01T04:57:33.156Z,99.12
2023-01-01T05:00:01.198Z,99.71
2023-01-01T05:02:28.903Z,99.34
2023-01-01T05:04:56.512Z,99.57
2023-01-01T05:07:24.266Z,99.21
2023-01-01T05:09:51.954Z,99.55
2023-01-01T05:12:19.474Z,99.39
2023-01-01T05:14:47.242Z,100.00
2023-01-01T05:17:14.908Z,99.96
2023-01-01T05:19:45.175Z,100.00
2023-01-01T05:22:13.116Z,100.00
2023-01-01T05:24:40.655Z,100.00
2023-01-01T05:27:08.801Z,100.00
2023-01-01T05:29:37.749Z,100.00
2023-01-01T05:32:05.377Z,100.00
2023-01-01T05:36:59.599Z,100.00
2023-01-01T05:39:27.111Z,100.00
2023-01-01T05:41:54.784Z,100.00
2023-01-01T05:44:23.457Z,100.00
2023-01-01T05:46:51.158Z,100.00
2023-01-01T05:49:18.770Z,100.00
2023-01-01T05:51:46.772Z,100.00
2023-01-01T05:56:40.751Z,100.00
2023-01-01T05:59:10.534Z,100.00
2023-01-01T06:01:45.181Z,100.00
2023-01-01T06:04:14.149Z,100.00
2023-01-01T06:06:42.018Z,100.00
2023-01-01T06:09:10.089Z,100.00
2023-01-01T06:11:38.076Z,100.00
2023-01-01T06:14:05.660Z,100.00
2023-01-01T06:16:33.159Z,100.00
2023-01-01T06:19:00.982Z,100.00
2023-01-01T06:21:29.675Z,100.00
2023-01-01T06:23:58.603Z,100.00
2023-01-01T06:26:28.794Z,100.00
2023-01-01T06:28:57.165Z,100.00
2023-01-01T06:31:25.130Z,100.00
2023-01-01T06:33:53.013Z,100.00
2023-01-01T06:36:23.147Z,100.00
2023-01-01T06:38:53.292Z,100.00
2023-01-01T06:41:23.439Z,100.00
2023-01-01T06:43:50.918Z,100.00
2023-01-01T06:46:20.008Z,100.00
2023-01-01T06:48:49.899Z,100.00
2023-01-01T06:51:19.908Z,100.00
2023-01-01T06:53:49.285Z,100.00
2023-01-01T06:56:17.522Z,100.00
2023-01-01T06:58:45.998Z,100.00
2023-01-01T07:01:16.847Z,100.00
2023-01-01T07:03:45.647Z,100.00
2023-01-01T07:06:13.180Z,100.00
2023-01-01T07:08:40.995Z,100.00
2023-01-01T07:11:08.784Z,99.96
2023-01-01T07:13:36.330Z,100.00
2023-01-01T07:16:10.281Z,99.98
2023-01-01T07:18:40.423Z,99.97
2023-01-01T07:21:28.441Z,99.99
2023-01-01T07:24:01.546Z,100.00
2023-01-01T07:26:30.499Z,100.00
2023-01-01T07:29:06.449Z,99.95
2023-01-01T07:31:40.286Z,100.00
2023-01-01T07:34:12.854Z,100.00
2023-01-01T07:36:41.451Z,100.00
2023-01-01T07:39:09.322Z,100.00
2023-01-01T07:41:37.378Z,100.00
2023-01-01T07:44:05.487Z,99.97
2023-01-01T07:46:35.726Z,99.85
2023-01-01T07:49:03.584Z,99.68
2023-01-01T07:51:31.367Z,99.55
2023-01-01T07:54:05.697Z,99.42
2023-01-01T07:56:35.292Z,99.37
2023-01-01T07:59:02.968Z,99.18
2023-01-01T08:01:30.665Z,99.00
2023-01-01T08:03:58.607Z,99.22
2023-01-01T08:06:26.460Z,98.85
2023-01-01T08:08:54.121Z,98.55
2023-01-01T08:11:22.026Z,98.71
2023-01-01T08:13:49.537Z,98.77
2023-01-01T08:16:17.133Z,98.40
2023-01-01T08:18:45.207Z,98.13
2023-01-01T08:21:13.052Z,98.19
2023-01-01T08:23:40.513Z,97.87
2023-01-01T08:26:15.304Z,98.13
2023-01-01T08:28:43.296Z,97.04
2023-01-01T08:31:11.095Z,96.45
2023-01-01T08:33:38.794Z,96.84
2023-01-01T08:36:06.648Z,96.39
2023-01-01T08:38:34.482Z,96.30
2023-01-01T08:41:02.167Z,96.83
2023-01-01T08:43:29.663Z,97.29
2023-01-01T08:45:57.395Z,95.92
2023-01-01T08:48:30.583Z,95.62
2023-01-01T08:51:00.613Z,95.17
2023-01-01T08:53:29.162Z,94.19
2023-01-01T08:56:07.599Z,94.43
2023-01-01T08:58:36.510Z,94.10
2023-01-01T09:01:04.531Z,93.96
2023-01-01T09:03:32.206Z,93.75
2023-01-01T09:06:00.212Z,92.75
2023-01-01T09:08:27.879Z,92.19
2023-01-01T09:11:03.380Z,91.20
2023-01-01T09:13:32.463Z,91.23
2023-01-01T09:16:00.267Z,90.75
2023-01-01T09:18:27.795Z,90.70
2023-01-01T09:20:55.594Z,88.58
2023-01-01T09:23:23.233Z,88.15
2023-01-01T09:25:50.819Z,87.95
2023-01-01T09:28:25.134Z,87.51
2023-01-01T09:30:53.525Z,87.91
2023-01-01T09:33:21.364Z,87.17
2023-01-01T09:35:48.939Z,86.40
2023-01-01T09:38:16.766Z,86.58
2023-01-01T09:41:07.650Z,86.21
2023-01-01T09:43:50.269Z,85.23
2023-01-01T09:46:18.317Z,85.98
2023-01-01T09:48:54.307Z,85.40
2023-01-01T09:51:23.397Z,83.95
2023-01-01T09:53:55.560Z,83.94
2023-01-01T09:56:27.727Z,85.19
2023-01-01T09:58:59.108Z,86.13
2023-01-01T10:01:39.048Z,86.60
2023-01-01T10:04:06.771Z,84.76
2023-01-01T10:06:40.222Z,84.53
2023-01-01T10:09:10.117Z,82.54
2023-01-01T10:11:50.911Z,81.23
2023-01-01T10:14:27.608Z,82.35
2023-01-01T10:16:57.087Z,82.50
2023-01-01T10:19:31.725Z,81.97
2023-01-01T10:22:11.894Z,80.88
2023-01-01T10:24:50.243Z,82.34
2023-01-01T10:27:31.491Z,79.44
2023-01-01T10:30:04.921Z,78.72
2023-01-01T10:32:36.407Z,78.20
2023-01-01T10:35:13.776Z,78.04
2023-01-01T10:37:41.929Z,78.52
2023-01-01T10:40:20.556Z,77.91
2023-01-01T10:42:52.038Z,77.31
2023-01-01T10:45:30.257Z,78.39
2023-01-01T10:48:14.571Z,78.42
2023-01-01T10:50:47.217Z,76.42
2023-01-01T10:53:35.420Z,77.64
2023-01-01T10:56:07.116Z,77.58
2023-01-01T10:58:40.864Z,76.45
2023-01-01T11:01:11.648Z,76.89
2023-01-01T11:03:58.659Z,75.94
2023-01-01T11:06:43.243Z,76.38
2023-01-01T11:09:28.149Z,74.68
2023-01-01T11:12:07.150Z,73.89
2023-01-01T11:14:49.702Z,73.35
2023-01-01T11:17:22.121Z,74.02
2023-01-01T11:19:53.572Z,73.62
2023-01-01T11:22:44.166Z,74.26
2023-01-01T11:25:18.772Z,75.03
2023-01-01T11:27:47.235Z,74.46
2023-01-01T11:30:26.208Z,75.16
2023-01-01T11:32:59.654Z,73.42
2023-01-01T11:35:28.687Z,74.34
2023-01-01T11:37:57.753Z,73.28
2023-01-01T11:40:39.740Z,74.55
2023-01-01T11:43:08.641Z,74.23
2023-01-01T11:45:40.784Z,72.11
2023-01-01T11:48:16.884Z,71.80
2023-01-01T11:50:59.185Z,71.95
2023-01-01T11:53:35.382Z,72.74
2023-01-01T11:56:02.812Z,72.22
2023-01-01T11:58:36.357Z,73.32
2023-01-01T12:01:12.606Z,73.67
2023-01-01T12:03:46.721Z,74.38
2023-01-01T12:06:30.331Z,74.97
2023-01-01T12:09:19.036Z,75.27
2023-01-01T12:11:51.401Z,75.49
2023-01-01T12:14:29.514Z,75.72
2023-01-01T12:17:03.731Z,74.98
2023-01-01T12:19:40.913Z,74.86
2023-01-01T12:22:16.823Z,75.58
2023-01-01T12:24:46.401Z,75.38
2023-01-01T12:27:23.013Z,75.43
2023-01-01T12:30:01.179Z,74.88
2023-01-01T12:32:47.454Z,75.51
2023-01-01T12:35:18.234Z,75.10
2023-01-01T12:38:18.282Z,75.42
2023-01-01T12:41:04.754Z,75.68
2023-01-01T12:44:01.625Z,75.42
2023-01-01T12:46:42.869Z,75.20
2023-01-01T12:49:33.452Z,75.57
2023-01-01T12:52:26.198Z,76.15
2023-01-01T12:55:12.922Z,75.86
2023-01-01T12:57:51.849Z,76.62
2023-01-01T13:00:21.051Z,76.87
2023-01-01T13:02:50.469Z,77.07
2023-01-01T13:05:38.673Z,77.46
2023-01-01T13:08:07.234Z,77.80
2023-01-01T13:10:38.744Z,78.36
2023-01-01T13:13:06.615Z,78.64
2023-01-01T13:15:37.196Z,79.05
2023-01-01T13:18:13.718Z,79.54
2023-01-01T13:20:54.326Z,79.71
2023-01-01T13:23:38.585Z,80.19
2023-01-01T13:26:21.691Z,80.56
2023-01-01T13:28:52.328Z,80.92
2023-01-01T13:31:43.084Z,81.11
2023-01-01T13:34:33.611Z,81.52
2023-01-01T13:37:10.737Z,81.66
2023-01-01T13:39:57.143Z,81.96
2023-01-01T13:42:38.230Z,82.22
2023-01-01T13:45:30.402Z,82.76
2023-01-01T13:48:24.824Z,82.87
2023-01-01T13:50:59.509Z,83.16
2023-01-01T13:53:46.153Z,83.28
2023-01-01T13:56:35.312Z,83.63
2023-01-01T13:59:28.182Z,83.86
2023-01-01T14:01:59.362Z,83.97
2023-01-01T14:04:41.217Z,84.05
2023-01-01T14:07:50.045Z,84.25
2023-01-01T14:10:19.431Z,84.55
2023-01-01T14:12:47.349Z,84.73
2023-01-01T14:15:39.886Z,85.05
2023-01-01T14:18:13.514Z,85.29
2023-01-01T14:20:44.076Z,85.59
2023-01-01T14:23:16.944Z,86.03
2023-01-01T14:25:45.448Z,85.98
2023-01-01T14:28:32.729Z,86.28
2023-01-01T14:31:10.656Z,86.52
2023-01-01T14:33:39.645Z,86.69
2023-01-01T14:36:16.132Z,86.88
2023-01-01T14:38:46.066Z,87.14
2023-01-01T14:41:35.786Z,87.37
2023-01-01T14:44:11.064Z,87.62
2023-01-01T14:46:46.546Z,87.86
2023-01-01T14:49:38.153Z,88.09
2023-01-01T14:52:09.152Z,88.42
2023-01-01T14:54:38.644Z,88.68
2023-01-01T14:57:30.653Z,89.04
2023-01-01T14:59:58.523Z,89.39
2023-01-01T15:02:30.243Z,89.72
2023-01-01T15:04:58.789Z,90.20
2023-01-01T15:07:30.391Z,90.64
2023-01-01T15:10:03.268Z,91.20
2023-01-01T15:12:34.086Z,92.13
2023-01-01T15:15:02.094Z,92.40
2023-01-01T15:17:45.206Z,93.70
2023-01-01T15:20:23.498Z,93.56
2023-01-01T15:22:52.765Z,94.04
2023-01-01T15:25:20.921Z,94.09
2023-01-01T15:27:50.242Z,94.30
2023-01-01T15:30:26.828Z,95.33
2023-01-01T15:32:55.532Z,96.43
2023-01-01T15:35:32.260Z,96.91
2023-01-01T15:38:09.563Z,97.15
2023-01-01T15:40:37.237Z,97.21
2023-01-01T15:43:15.213Z,97.30
2023-01-01T15:45:50.708Z,96.88
2023-01-01T15:48:34.143Z,97.10
2023-01-01T15:51:18.262Z,96.87
2023-01-01T15:53:58.037Z,96.78
2023-01-01T15:56:31.065Z,96.75
2023-01-01T15:59:25.289Z,96.65
2023-01-01T16:01:53.179Z,96.74
2023-01-01T16:04:28.305Z,96.55
2023-01-01T16:06:57.751Z,96.65
2023-01-01T16:09:26.223Z,96.61
2023-01-01T16:11:56.048Z,96.66
2023-01-01T16:14:24.196Z,96.61
2023-01-01T16:16:58.531Z,96.30
2023-01-01T16:19:26.716Z,96.67
2023-01-01T16:21:54.742Z,98.10
2023-01-01T16:24:22.220Z,97.27
2023-01-01T16:26:49.784Z,98.63
2023-01-01T16:29:36.255Z,97.89
2023-01-01T16:32:04.736Z,98.28
2023-01-01T16:34:32.563Z,98.31
2023-01-01T16:37:00.185Z,98.10
2023-01-01T16:39:27.649Z,98.23
2023-01-01T16:41:56.876Z,98.07
2023-01-01T16:44:24.438Z,98.32
2023-01-01T16:46:52.153Z,98.43
2023-01-01T16:49:20.212Z,98.17
2023-01-01T16:51:47.809Z,98.10
2023-01-01T16:54:15.434Z,97.75
2023-01-01T16:56:43.353Z,97.62
2023-01-01T16:59:11.083Z,97.51
2023-01-01T17:01:38.777Z,97.36
2023-01-01T17:04:07.101Z,97.18
2023-01-01T17:06:34.685Z,97.34
2023-01-01T17:09:02.230Z,97.76
2023-01-01T17:11:30.275Z,97.55
2023-01-01T17:14:02.468Z,97.69
2023-01-01T17:16:38.261Z,98.27
2023-01-01T17:19:17.220Z,98.97
2023-01-01T17:21:48.560Z,99.09
2023-01-01T17:24:18.253Z,98.99
2023-01-01T17:26:46.378Z,98.74
2023-01-01T17:29:14.117Z,98.54
2023-01-01T17:31:43.727Z,98.50
2023-01-01T17:34:15.066Z,98.37
2023-01-01T17:36:43.879Z,98.51
2023-01-01T17:39:13.650Z,98.43
2023-01-01T17:41:43.010Z,98.52
2023-01-01T17:44:11.705Z,98.43
2023-01-01T17:46:39.835Z,99.52
2023-01-01T17:49:09.161Z,98.90
2023-01-01T17:51:37.272Z,99.63
2023-01-01T17:54:07.169Z,99.88
2023-01-01T17:56:34.818Z,99.89
2023-01-01T17:59:02.405Z,100.00
2023-01-01T18:01:32.727Z,100.00
2023-01-01T18:04:04.200Z,100.00
2023-01-01T18:06:37.319Z,99.87
2023-01-01T18:09:11.489Z,99.61
2023-01-01T18:11:39.300Z,99.45
2023-01-01T18:14:07.168Z,99.45
2023-01-01T18:16:37.089Z,99.51
2023-01-01T18:19:05.495Z,99.44
2023-01-01T18:21:34.246Z,99.14
2023-01-01T18:24:02.356Z,99.24
2023-01-01T18:26:31.301Z,99.22
2023-01-01T18:29:01.558Z,99.03
2023-01-01T18:31:31.748Z,98.94
2023-01-01T18:34:00.457Z,99.13
2023-01-01T18:36:29.976Z,99.19
2023-01-01T18:39:01.922Z,99.22
2023-01-01T18:41:39.119Z,99.21
2023-01-01T18:44:27.393Z,99.34
2023-01-01T18:47:04.474Z,99.44
2023-01-01T18:49:38.613Z,99.51
2023-01-01T18:52:06.115Z,99.85
2023-01-01T18:54:34.863Z,99.94
2023-01-01T18:57:05.375Z,100.00
2023-01-01T18:59:33.158Z,100.00
2023-01-01T19:02:01.617Z,100.00
2023-01-01T19:04:29.312Z,100.00
2023-01-01T19:06:57.784Z,100.00
2023-01-01T19:09:26.933Z,100.00
2023-01-01T19:11:54.837Z,100.00
2023-01-01T19:14:24.509Z,100.00
2023-01-01T19:16:56.514Z,100.00
2023-01-01T19:19:26.151Z,100.00
2023-01-01T19:22:13.472Z,99.92
2023-01-01T19:24:43.975Z,100.00
2023-01-01T19:27:18.994Z,100.00
2023-01-01T19:29:48.126Z,100.00
2023-01-01T19:32:16.177Z,100.00
2023-01-01T19:34:43.846Z,100.00
2023-01-01T19:37:11.496Z,100.00
2023-01-01T19:39:42.590Z,100.00
2023-01-01T19:42:11.384Z,100.00
2023-01-01T19:44:40.066Z,100.00
2023-01-01T19:47:09.400Z,100.00
2023-01-01T19:49:37.066Z,100.00
2023-01-01T19:52:06.234Z,100.00
2023-01-01T19:54:34.018Z,100.00
2023-01-01T19:57:01.641Z,100.00
2023-01-01T19:59:33.269Z,100.00
2023-01-01T20:04:50.964Z,100.00
2023-01-01T20:07:18.825Z,100.00
2023-01-01T20:09:46.679Z,100.00
2023-01-01T20:12:14.486Z,100.00
2023-01-01T20:14:42.091Z,100.00
2023-01-01T20:17:10.025Z,100.00
2023-01-01T20:19:39.103Z,100.00
2023-01-01T20:22:14.244Z,100.00
2023-01-01T20:24:44.772Z,100.00
2023-01-01T20:27:13.960Z,100.00
2023-01-01T20:29:43.160Z,100.00
2023-01-01T20:32:13.413Z,100.00
2023-01-01T20:34:41.767Z,100.00
2023-01-01T20:37:28.729Z,100.00
2023-01-01T20:39:56.395Z,100.00
2023-01-01T20:42:27.520Z,100.00
2023-01-01T20:44:55.714Z,100.00
2023-01-01T20:47:23.640Z,100.00
2023-01-01T20:49:53.406Z,100.00
2023-01-01T20:52:21.268Z,100.00
2023-01-01T20:54:49.179Z,100.00
2023-01-01T20:57:18.540Z,100.00
2023-01-01T20:59:46.704Z,100.00
2023-01-01T21:02:14.658Z,99.87
2023-01-01T21:04:42.852Z,99.68
2023-01-01T21:07:11.712Z,100.00
2023-01-01T21:09:40.793Z,100.00
2023-01-01T21:12:09.547Z,100.00
2023-01-01T21:14:37.647Z,100.00
2023-01-01T21:17:22.203Z,100.00
2023-01-01T21:19:54.674Z,100.00
2023-01-01T21:22:22.506Z,100.00
2023-01-01T21:24:54.482Z,100.00
2023-01-01T21:27:30.661Z,100.00
2023-01-01T21:30:01.054Z,100.00
2023-01-01T21:32:38.529Z,100.00
2023-01-01T21:35:32.199Z,100.00
2023-01-01T21:38:00.966Z,100.00
2023-01-01T21:40:54.402Z,100.00
2023-01-01T21:43:39.010Z,100.00
2023-01-01T21:46:06.814Z,100.00
2023-01-01T21:48:42.826Z,100.00
2023-01-01T21:51:23.299Z,100.00
2023-01-01T21:53:51.039Z,100.00
2023-01-01T21:56:34.261Z,100.00
2023-01-01T21:59:28.159Z,100.00
2023-01-01T22:02:05.885Z,100.00
2023-01-01T22:04:39.794Z,100.00
2023-01-01T22:10:34.751Z,100.00
2023-01-01T22:13:02.439Z,100.00
2023-01-01T22:15:39.732Z,100.00
2023-01-01T22:18:33.691Z,100.00
2023-01-01T22:21:02.860Z,100.00
2023-01-01T22:23:40.472Z,100.00
2023-01-01T22:26:18.445Z,100.00
2023-01-01T22:28:47.698Z,100.00
2023-01-01T22:31:30.235Z,100.00
2023-01-01T22:34:00.500Z,100.00
2023-01-01T22:36:30.093Z,100.00
2023-01-01T22:39:14.502Z,100.00
2023-01-01T22:41:43.090Z,100.00
2023-01-01T22:44:11.693Z,100.00
2023-01-01T22:46:40.547Z,100.00
2023-01-01T22:49:33.358Z,100.00
2023-01-01T22:52:03.640Z,100.00
2023-01-01T22:54:31.510Z,100.00
2023-01-01T22:56:59.086Z,100.00
2023-01-01T22:59:26.643Z,100.00
2023-01-01T23:01:54.470Z,100.00
2023-01-01T23:04:22.024Z,100.00
2023-01-01T23:06:49.636Z,100.00
2023-01-01T23:09:17.527Z,100.00
2023-01-01T23:11:45.927Z,100.00
2023-01-01T23:14:35.629Z,100.00
2023-01-01T23:17:06.611Z,100.00
2023-01-01T23:19:34.544Z,100.00
2023-01-01T23:22:03.199Z,100.00
2023-01-01T23:24:35.709Z,100.00
2023-01-01T23:27:04.029Z,100.00
2023-01-01T23:29:33.437Z,100.00
2023-01-01T23:32:01.605Z,100.00
2023-01-01T23:34:29.248Z,100.00
2023-01-01T23:36:57.889Z,100.00
2023-01-01T23:39:25.408Z,100.00
2023-01-01T23:41:53.122Z,100.00
2023-01-01T23:44:21.258Z,100.00
2023-01-01T23:46:48.941Z,100.00
2023-01-01T23:49:17.244Z,100.00
2023-01-01T23:51:45.121Z,100.00
2023-01-01T23:54:12.569Z,100.00
2023-01-01T23:56:40.049Z,100.00
2023-01-01T23:59:07.818Z,100.00
